createdAt,value
2023-01-18T00:00:32.497Z,95763.69
2023-01-18T00:03:01.012Z,95762.06
2023-01-18T00:05:28.878Z,95762.25
2023-01-18T00:07:56.811Z,95774.09
2023-01-18T00:10:25.982Z,95771.38
2023-01-18T00:12:57.244Z,95765.06
2023-01-18T00:15:25.464Z,95774.44
2023-01-18T00:17:53.663Z,95774.34
2023-01-18T00:20:23.780Z,95767.56
2023-01-18T00:22:52.685Z,95772.09
2023-01-18T00:25:21.833Z,95771.00
2023-01-18T00:27:52.853Z,95773.38
2023-01-18T00:30:22.997Z,95778.88
2023-01-18T00:32:56.094Z,95780.63
2023-01-18T00:35:24.473Z,95778.53
2023-01-18T00:37:53.495Z,95783.16
2023-01-18T00:40:22.395Z,95781.81
2023-01-18T00:43:09.176Z,95778.63
2023-01-18T00:45:37.110Z,95778.31
2023-01-18T00:48:05.227Z,95780.91
2023-01-18T00:50:32.976Z,95782.00
2023-01-18T00:53:03.206Z,95785.66
2023-01-18T00:55:30.993Z,95778.25
2023-01-18T00:58:00.163Z,95786.13
2023-01-18T01:00:27.986Z,95783.75
2023-01-18T01:02:56.545Z,95785.56
2023-01-18T01:05:43.560Z,95785.81
2023-01-18T01:08:16.839Z,95785.41
2023-01-18T01:10:46.359Z,95789.78
2023-01-18T01:13:34.526Z,95787.56
2023-01-18T01:16:23.685Z,95793.09
2023-01-18T01:19:09.484Z,95791.84
2023-01-18T01:21:55.279Z,95793.47
2023-01-18T01:24:40.545Z,95795.22
2023-01-18T01:27:08.382Z,95804.44
2023-01-18T01:29:37.490Z,95797.19
2023-01-18T01:32:05.724Z,95805.94
2023-01-18T01:34:33.743Z,95805.44
2023-01-18T01:37:01.613Z,95812.56
2023-01-18T01:39:29.943Z,95816.47
2023-01-18T01:41:57.827Z,95823.25
2023-01-18T01:44:52.004Z,95814.53
2023-01-18T01:47:35.857Z,95813.28
2023-01-18T01:50:10.856Z,95816.16
2023-01-18T01:52:42.546Z,95813.97
2023-01-18T01:55:16.932Z,95818.72
2023-01-18T01:57:49.500Z,95827.13
2023-01-18T02:00:20.635Z,95824.28
2023-01-18T02:02:54.429Z,95834.38
2023-01-18T02:05:22.855Z,95833.47
2023-01-18T02:07:51.224Z,95841.16
2023-01-18T02:10:19.157Z,95837.06
2023-01-18T02:12:50.011Z,95839.47
2023-01-18T02:15:20.336Z,95838.38
2023-01-18T02:18:13.979Z,95841.50
2023-01-18T02:21:10.255Z,95835.44
2023-01-18T02:24:23.316Z,95854.63
2023-01-18T02:27:15.716Z,95850.19
2023-01-18T02:30:08.234Z,95852.84
2023-01-18T02:32:49.597Z,95849.78
2023-01-18T02:35:26.516Z,95852.88
2023-01-18T02:38:06.657Z,95867.84
2023-01-18T02:40:43.241Z,95866.69
2023-01-18T02:43:31.403Z,95862.44
2023-01-18T02:46:19.867Z,95848.22
2023-01-18T02:48:50.557Z,95862.88
2023-01-18T02:51:18.532Z,95873.94
2023-01-18T02:53:49.698Z,95863.03
2023-01-18T02:56:22.486Z,95871.84
2023-01-18T02:58:56.002Z,95868.81
2023-01-18T03:01:29.052Z,95874.63
2023-01-18T03:04:01.866Z,95872.09
2023-01-18T03:06:31.232Z,95874.38
2023-01-18T03:09:00.837Z,95870.56
2023-01-18T03:11:37.423Z,95883.28
2023-01-18T03:14:22.956Z,95875.91
2023-01-18T03:17:01.756Z,95876.88
2023-01-18T03:19:58.657Z,95879.41
2023-01-18T03:22:42.596Z,95890.88
2023-01-18T03:25:14.490Z,95892.03
2023-01-18T03:28:03.097Z,95891.38
2023-01-18T03:30:52.182Z,95884.72
2023-01-18T03:33:45.584Z,95887.53
2023-01-18T03:36:23.414Z,95886.31
2023-01-18T03:38:55.705Z,95888.00
2023-01-18T03:41:27.830Z,95887.91
2023-01-18T03:43:59.243Z,95889.25
2023-01-18T03:46:30.209Z,95883.72
2023-01-18T03:48:59.925Z,95891.59
2023-01-18T03:51:37.383Z,95903.44
2023-01-18T03:54:11.950Z,95907.75
2023-01-18T03:56:47.318Z,95913.91
2023-01-18T03:59:15.372Z,95915.63
2023-01-18T04:01:44.854Z,95917.03
2023-01-18T04:04:14.027Z,95915.22
2023-01-18T04:06:42.515Z,95911.03
2023-01-18T04:09:11.876Z,95922.63
2023-01-18T04:11:39.672Z,95921.16
2023-01-18T04:14:07.451Z,95915.72
2023-01-18T04:16:35.243Z,95920.31
2023-01-18T04:19:03.179Z,95927.31
2023-01-18T04:21:32.391Z,95919.34
2023-01-18T04:24:00.264Z,95924.41
2023-01-18T04:26:28.212Z,95932.38
2023-01-18T04:28:55.960Z,95932.31
2023-01-18T04:31:23.856Z,95937.38
2023-01-18T04:33:51.735Z,95939.63
2023-01-18T04:36:20.129Z,95942.16
2023-01-18T04:38:54.035Z,95945.19
2023-01-18T04:41:22.155Z,95947.44
2023-01-18T04:43:50.217Z,95948.88
2023-01-18T04:46:18.163Z,95950.31
2023-01-18T04:48:46.503Z,95962.00
2023-01-18T04:51:15.252Z,95964.88
2023-01-18T04:53:43.758Z,95967.84
2023-01-18T04:56:13.258Z,95971.00
2023-01-18T04:58:41.069Z,95975.47
2023-01-18T05:01:12.282Z,95980.66
2023-01-18T05:03:42.271Z,95982.19
2023-01-18T05:06:11.821Z,95986.47
2023-01-18T05:08:42.391Z,95992.06
2023-01-18T05:11:13.801Z,95997.41
2023-01-18T05:13:42.922Z,96002.13
2023-01-18T05:16:14.932Z,96014.50
2023-01-18T05:18:42.845Z,96016.47
2023-01-18T05:21:11.269Z,96025.59
2023-01-18T05:23:40.103Z,96031.22
2023-01-18T05:26:14.453Z,96039.53
2023-01-18T05:28:44.798Z,96053.03
2023-01-18T05:31:12.765Z,96054.19
2023-01-18T05:33:40.796Z,96066.00
2023-01-18T05:36:09.220Z,96060.34
2023-01-18T05:38:37.344Z,96064.53
2023-01-18T05:41:05.296Z,96076.53
2023-01-18T05:43:35.580Z,96075.22
2023-01-18T05:46:05.962Z,96086.13
2023-01-18T05:48:33.922Z,96088.50
2023-01-18T05:51:01.899Z,96087.19
2023-01-18T05:53:29.777Z,96088.25
2023-01-18T05:55:58.881Z,96097.50
2023-01-18T05:58:27.528Z,96094.50
2023-01-18T06:00:56.858Z,96100.50
2023-01-18T06:03:26.442Z,96111.59
2023-01-18T06:05:54.343Z,96119.78
2023-01-18T06:08:22.492Z,96130.00
2023-01-18T06:10:54.502Z,96134.81
2023-01-18T06:13:23.043Z,96148.91
2023-01-18T06:15:51.808Z,96150.44
2023-01-18T06:18:19.998Z,96148.63
2023-01-18T06:20:49.255Z,96157.97
2023-01-18T06:23:17.083Z,96165.25
2023-01-18T06:25:45.049Z,96164.44
2023-01-18T06:28:13.139Z,96172.34
2023-01-18T06:30:42.833Z,96174.94
2023-01-18T06:33:10.680Z,96181.94
2023-01-18T06:35:38.499Z,96179.84
2023-01-18T06:38:08.114Z,96184.81
2023-01-18T06:40:36.045Z,96183.34
2023-01-18T06:43:04.045Z,96193.53
2023-01-18T06:45:31.950Z,96203.28
2023-01-18T06:47:59.835Z,96211.78
2023-01-18T06:50:28.194Z,96217.72
2023-01-18T06:52:56.922Z,96219.13
2023-01-18T06:55:26.401Z,96215.25
2023-01-18T06:57:55.103Z,96232.25
2023-01-18T07:00:24.962Z,96234.63
2023-01-18T07:02:53.244Z,96229.78
2023-01-18T07:05:21.179Z,96231.44
2023-01-18T07:07:48.971Z,96238.44
2023-01-18T07:10:17.167Z,96240.44
2023-01-18T07:12:48.679Z,96246.94
2023-01-18T07:15:22.067Z,96255.59
2023-01-18T07:17:51.208Z,96253.47
2023-01-18T07:20:19.806Z,96259.38
2023-01-18T07:22:51.807Z,96271.78
2023-01-18T07:25:20.705Z,96273.69
2023-01-18T07:27:50.132Z,96281.16
2023-01-18T07:30:18.683Z,96294.66
2023-01-18T07:32:49.621Z,96288.50
2023-01-18T07:35:18.317Z,96297.47
2023-01-18T07:37:49.332Z,96294.63
2023-01-18T07:40:18.010Z,96305.94
2023-01-18T07:42:46.009Z,96313.78
2023-01-18T07:45:15.402Z,96319.00
2023-01-18T07:47:46.364Z,96316.91
2023-01-18T07:50:17.444Z,96320.81
2023-01-18T07:52:45.236Z,96321.66
2023-01-18T07:55:13.082Z,96327.41
2023-01-18T07:57:40.947Z,96335.50
2023-01-18T08:00:10.844Z,96339.81
2023-01-18T08:02:45.490Z,96349.59
2023-01-18T08:05:13.371Z,96347.63
2023-01-18T08:07:41.162Z,96356.22
2023-01-18T08:10:10.122Z,96356.84
2023-01-18T08:12:37.986Z,96366.06
2023-01-18T08:15:07.025Z,96371.75
2023-01-18T08:17:35.876Z,96377.44
2023-01-18T08:20:06.156Z,96377.31
2023-01-18T08:22:34.224Z,96377.50
2023-01-18T08:25:02.238Z,96379.28
2023-01-18T08:27:30.207Z,96388.50
2023-01-18T08:29:58.209Z,96389.22
2023-01-18T08:32:26.181Z,96397.63
2023-01-18T08:34:54.041Z,96409.75
2023-01-18T08:37:23.785Z,96419.78
2023-01-18T08:39:51.693Z,96423.97
2023-01-18T08:42:19.542Z,96424.06
2023-01-18T08:44:48.782Z,96431.06
2023-01-18T08:47:16.984Z,96441.06
2023-01-18T08:49:44.965Z,96440.78
2023-01-18T08:52:15.295Z,96447.91
2023-01-18T08:54:44.524Z,96456.66
2023-01-18T08:57:12.423Z,96462.19
2023-01-18T08:59:40.329Z,96464.53
2023-01-18T09:02:10.615Z,96459.88
2023-01-18T09:04:38.537Z,96466.16
2023-01-18T09:07:06.747Z,96474.69
2023-01-18T09:09:34.585Z,96476.03
2023-01-18T09:12:03.848Z,96489.00
2023-01-18T09:14:31.754Z,96494.66
2023-01-18T09:16:59.647Z,96493.16
2023-01-18T09:19:27.546Z,96495.34
2023-01-18T09:21:55.480Z,96504.34
2023-01-18T09:24:23.521Z,96508.06
2023-01-18T09:26:52.172Z,96516.50
2023-01-18T09:29:21.727Z,96522.34
2023-01-18T09:31:50.104Z,96527.19
2023-01-18T09:34:19.935Z,96536.22
2023-01-18T09:36:50.932Z,96540.22
2023-01-18T09:39:19.445Z,96543.75
2023-01-18T09:41:53.232Z,96548.88
2023-01-18T09:44:28.734Z,96561.78
2023-01-18T09:46:59.807Z,96566.38
2023-01-18T09:49:33.867Z,96567.44
2023-01-18T09:52:25.760Z,96568.31
2023-01-18T09:55:01.455Z,96573.03
2023-01-18T09:57:46.720Z,96567.25
2023-01-18T10:00:22.834Z,96574.19
2023-01-18T10:02:55.265Z,96578.47
2023-01-18T10:05:26.464Z,96585.63
2023-01-18T10:08:03.694Z,96582.28
2023-01-18T10:10:37.332Z,96587.16
2023-01-18T10:13:31.018Z,96593.09
2023-01-18T10:16:01.318Z,96594.34
2023-01-18T10:18:29.558Z,96596.09
2023-01-18T10:21:02.015Z,96603.00
2023-01-18T10:23:35.791Z,96603.97
2023-01-18T10:26:07.534Z,96608.63
2023-01-18T10:28:47.662Z,96611.75
2023-01-18T10:31:36.652Z,96611.25
2023-01-18T10:34:15.384Z,96615.28
2023-01-18T10:36:46.898Z,96615.06
2023-01-18T10:39:27.958Z,96616.69
2023-01-18T10:42:00.185Z,96622.03
2023-01-18T10:44:29.045Z,96627.34
2023-01-18T10:47:00.579Z,96627.44
2023-01-18T10:49:36.498Z,96631.03
2023-01-18T10:52:26.628Z,96636.44
2023-01-18T10:54:58.031Z,96641.28
2023-01-18T10:57:30.892Z,96646.72
2023-01-18T11:00:00.073Z,96646.34
2023-01-18T11:02:32.797Z,96650.72
2023-01-18T11:05:16.972Z,96652.63
2023-01-18T11:07:45.096Z,96656.22
2023-01-18T11:10:25.378Z,96654.81
2023-01-18T11:12:54.311Z,96662.66
2023-01-18T11:15:30.564Z,96666.25
2023-01-18T11:18:06.620Z,96665.91
2023-01-18T11:20:39.841Z,96662.00
2023-01-18T11:23:17.891Z,96674.88
2023-01-18T11:25:55.607Z,96673.19
2023-01-18T11:28:27.248Z,96674.00
2023-01-18T11:30:58.647Z,96671.47
2023-01-18T11:33:29.479Z,96680.59
2023-01-18T11:36:00.224Z,96678.72
2023-01-18T11:38:30.642Z,96689.22
2023-01-18T11:41:15.254Z,96683.59
2023-01-18T11:43:54.855Z,96685.59
2023-01-18T11:46:35.740Z,96694.34
2023-01-18T11:49:17.247Z,96699.88
2023-01-18T11:51:50.107Z,96704.56
2023-01-18T11:54:26.801Z,96699.84
2023-01-18T11:56:59.584Z,96692.22
2023-01-18T11:59:31.001Z,96704.47
2023-01-18T12:02:31.551Z,96704.38
2023-01-18T12:05:28.184Z,96710.50
2023-01-18T12:08:22.387Z,96712.19
2023-01-18T12:11:07.229Z,96721.72
2023-01-18T12:13:37.775Z,96721.56
2023-01-18T12:16:16.118Z,96733.00
2023-01-18T12:19:06.252Z,96726.78
2023-01-18T12:21:47.248Z,96740.03
2023-01-18T12:24:34.953Z,96741.19
2023-01-18T12:27:14.063Z,96746.47
2023-01-18T12:30:12.320Z,96751.94
2023-01-18T12:32:57.682Z,96751.75
2023-01-18T12:35:42.734Z,96758.50
2023-01-18T12:38:18.946Z,96764.66
2023-01-18T12:41:17.623Z,96761.50
2023-01-18T12:44:00.200Z,96762.75
2023-01-18T12:46:32.542Z,96766.53
2023-01-18T12:49:04.941Z,96779.06
2023-01-18T12:51:36.505Z,96770.09
2023-01-18T12:54:14.296Z,96771.38
2023-01-18T12:56:46.421Z,96778.31
2023-01-18T12:59:20.530Z,96785.59
2023-01-18T13:01:55.080Z,96779.69
2023-01-18T13:04:29.180Z,96784.69
2023-01-18T13:07:01.192Z,96788.47
2023-01-18T13:09:36.984Z,96791.03
2023-01-18T13:12:07.012Z,96795.13
2023-01-18T13:14:42.020Z,96795.25
2023-01-18T13:17:17.064Z,96805.47
2023-01-18T13:19:51.448Z,96800.81
2023-01-18T13:22:28.510Z,96805.91
2023-01-18T13:25:26.256Z,96809.47
2023-01-18T13:28:01.397Z,96810.91
2023-01-18T13:30:31.876Z,96808.91
2023-01-18T13:33:00.432Z,96820.97
2023-01-18T13:35:33.311Z,96822.06
2023-01-18T13:38:10.406Z,96835.00
2023-01-18T13:40:42.985Z,96834.94
2023-01-18T13:43:44.159Z,96839.16
2023-01-18T13:46:21.658Z,96849.72
2023-01-18T13:48:54.358Z,96855.84
2023-01-18T13:51:52.290Z,96858.81
2023-01-18T13:54:55.325Z,96866.09
2023-01-18T13:57:24.770Z,96862.16
2023-01-18T13:59:53.467Z,96865.75
2023-01-18T14:02:27.670Z,96875.38
2023-01-18T14:05:05.878Z,96876.16
2023-01-18T14:07:41.458Z,96874.91
2023-01-18T14:10:25.085Z,96886.59
2023-01-18T14:12:55.952Z,96887.88
2023-01-18T14:15:30.282Z,96891.00
2023-01-18T14:17:59.475Z,96896.56
2023-01-18T14:20:58.149Z,96908.00
2023-01-18T14:23:53.002Z,96909.66
2023-01-18T14:26:22.492Z,96924.88
2023-01-18T14:28:56.922Z,96927.88
2023-01-18T14:31:30.761Z,96933.41
2023-01-18T14:33:58.791Z,96934.81
2023-01-18T14:36:29.534Z,96937.56
2023-01-18T14:39:12.987Z,96950.81
2023-01-18T14:41:43.391Z,96954.16
2023-01-18T14:44:22.526Z,96949.88
2023-01-18T14:46:52.280Z,96960.06
2023-01-18T14:49:26.201Z,96961.63
2023-01-18T14:51:54.972Z,96962.84
2023-01-18T14:54:26.118Z,96966.06
2023-01-18T14:57:02.700Z,96976.41
2023-01-18T14:59:33.368Z,96970.31
2023-01-18T15:02:04.481Z,96979.06
2023-01-18T15:04:38.957Z,96980.53
2023-01-18T15:07:10.490Z,96991.28
2023-01-18T15:09:40.737Z,96998.09
2023-01-18T15:12:11.079Z,96997.47
2023-01-18T15:14:48.586Z,97003.28
2023-01-18T15:17:21.859Z,97010.94
2023-01-18T15:19:53.064Z,97007.72
2023-01-18T15:22:25.656Z,97013.13
2023-01-18T15:24:53.648Z,97022.53
2023-01-18T15:27:21.751Z,97023.13
2023-01-18T15:29:53.908Z,97027.69
2023-01-18T15:32:23.345Z,97037.94
2023-01-18T15:34:53.246Z,97035.88
2023-01-18T15:37:25.921Z,97035.66
2023-01-18T15:40:01.487Z,97046.03
2023-01-18T15:42:33.217Z,97052.38
2023-01-18T15:45:02.526Z,97048.00
2023-01-18T15:47:36.662Z,97059.00
2023-01-18T15:50:16.450Z,97068.28
2023-01-18T15:52:46.665Z,97076.00
2023-01-18T15:55:24.577Z,97078.09
2023-01-18T15:58:00.458Z,97073.53
2023-01-18T16:00:33.300Z,97075.59
2023-01-18T16:03:03.049Z,97090.94
2023-01-18T16:05:32.899Z,97082.78
2023-01-18T16:08:19.916Z,97092.50
2023-01-18T16:10:50.025Z,97097.53
2023-01-18T16:13:32.162Z,97100.13
2023-01-18T16:16:19.200Z,97103.16
2023-01-18T16:18:49.976Z,97111.00
2023-01-18T16:21:34.145Z,97114.13
2023-01-18T16:24:02.116Z,97122.16
2023-01-18T16:26:31.999Z,97117.78
2023-01-18T16:29:08.921Z,97128.56
2023-01-18T16:31:43.316Z,97133.00
2023-01-18T16:34:20.601Z,97124.56
2023-01-18T16:36:48.908Z,97139.91
2023-01-18T16:39:16.922Z,97134.69
2023-01-18T16:41:52.020Z,97134.09
2023-01-18T16:44:20.807Z,97136.78
2023-01-18T16:46:50.552Z,97142.22
2023-01-18T16:49:18.599Z,97153.72
2023-01-18T16:51:47.526Z,97156.19
2023-01-18T16:54:15.459Z,97158.50
2023-01-18T16:56:45.889Z,97157.25
2023-01-18T16:59:17.922Z,97159.97
2023-01-18T17:01:46.719Z,97158.41
2023-01-18T17:04:16.570Z,97167.38
2023-01-18T17:06:45.417Z,97170.22
2023-01-18T17:09:21.219Z,97175.50
2023-01-18T17:11:50.027Z,97177.91
2023-01-18T17:14:18.217Z,97172.94
2023-01-18T17:16:46.773Z,97185.81
2023-01-18T17:19:18.147Z,97182.06
2023-01-18T17:21:47.858Z,97190.34
2023-01-18T17:24:16.530Z,97193.72
2023-01-18T17:26:45.114Z,97196.00
2023-01-18T17:29:17.388Z,97200.78
2023-01-18T17:31:52.162Z,97208.97
2023-01-18T17:34:27.925Z,97208.72
2023-01-18T17:36:58.425Z,97219.91
2023-01-18T17:39:37.424Z,97219.00
2023-01-18T17:42:19.290Z,97224.38
2023-01-18T17:44:50.823Z,97225.31
2023-01-18T17:47:21.008Z,97228.31
2023-01-18T17:49:50.217Z,97235.41
2023-01-18T17:52:18.046Z,97240.44
2023-01-18T17:54:45.806Z,97246.22
2023-01-18T17:57:13.990Z,97251.78
2023-01-18T17:59:41.831Z,97250.75
2023-01-18T18:02:11.622Z,97254.00
2023-01-18T18:04:39.619Z,97265.72
2023-01-18T18:07:08.815Z,97265.53
2023-01-18T18:09:40.614Z,97267.59
2023-01-18T18:12:09.532Z,97270.19
2023-01-18T18:14:40.176Z,97274.84
2023-01-18T18:17:09.258Z,97279.03
2023-01-18T18:19:37.208Z,97281.16
2023-01-18T18:22:06.098Z,97285.06
2023-01-18T18:24:35.354Z,97286.00
2023-01-18T18:27:03.674Z,97300.47
2023-01-18T18:29:31.604Z,97294.41
2023-01-18T18:31:59.588Z,97288.81
2023-01-18T18:34:27.542Z,97298.31
2023-01-18T18:36:55.342Z,97301.13
2023-01-18T18:39:23.665Z,97307.44
2023-01-18T18:41:53.122Z,97312.56
2023-01-18T18:44:21.010Z,97323.72
2023-01-18T18:46:48.975Z,97323.06
2023-01-18T18:49:16.824Z,97329.41
2023-01-18T18:51:44.668Z,97329.41
2023-01-18T18:54:12.828Z,97337.22
2023-01-18T18:56:41.487Z,97340.22
2023-01-18T18:59:10.907Z,97343.72
2023-01-18T19:01:38.873Z,97355.28
2023-01-18T19:04:06.814Z,97362.94
2023-01-18T19:06:35.381Z,97357.72
2023-01-18T19:09:05.308Z,97370.56
2023-01-18T19:11:33.399Z,97365.72
2023-01-18T19:14:03.987Z,97369.63
2023-01-18T19:16:33.424Z,97372.78
2023-01-18T19:19:02.569Z,97375.38
2023-01-18T19:21:30.488Z,97379.66
2023-01-18T19:23:58.354Z,97383.00
2023-01-18T19:26:26.466Z,97377.91
2023-01-18T19:28:56.825Z,97382.28
2023-01-18T19:31:24.807Z,97381.63
2023-01-18T19:33:56.311Z,97382.84
2023-01-18T19:36:24.283Z,97387.50
2023-01-18T19:38:57.815Z,97395.47
2023-01-18T19:41:30.227Z,97405.25
2023-01-18T19:43:58.217Z,97405.38
2023-01-18T19:46:26.265Z,97410.38
2023-01-18T19:48:59.537Z,97412.81
2023-01-18T19:51:30.417Z,97414.69
2023-01-18T19:53:58.608Z,97418.88
2023-01-18T19:56:28.080Z,97421.66
2023-01-18T19:58:56.017Z,97412.06
2023-01-18T20:01:36.294Z,97419.69
2023-01-18T20:04:07.677Z,97424.03
2023-01-18T20:06:37.580Z,97428.69
2023-01-18T20:09:17.674Z,97433.94
2023-01-18T20:11:46.455Z,97435.25
2023-01-18T20:14:18.401Z,97445.50
2023-01-18T20:16:46.922Z,97441.59
2023-01-18T20:19:17.420Z,97437.88
2023-01-18T20:21:45.237Z,97451.75
2023-01-18T20:24:13.047Z,97451.78
2023-01-18T20:26:42.020Z,97463.41
2023-01-18T20:29:11.129Z,97458.38
2023-01-18T20:31:40.421Z,97449.66
2023-01-18T20:34:08.727Z,97463.78
2023-01-18T20:36:37.930Z,97469.34
2023-01-18T20:39:06.341Z,97476.00
2023-01-18T20:41:34.341Z,97476.44
2023-01-18T20:44:02.232Z,97473.81
2023-01-18T20:46:30.080Z,97486.91
2023-01-18T20:48:58.502Z,97476.59
2023-01-18T20:51:27.134Z,97479.78
2023-01-18T20:53:56.554Z,97483.22
2023-01-18T20:56:29.833Z,97495.66
2023-01-18T20:59:00.137Z,97495.09
2023-01-18T21:01:32.926Z,97504.25
2023-01-18T21:04:02.732Z,97504.25
2023-01-18T21:06:31.371Z,97502.72
2023-01-18T21:09:01.660Z,97514.31
2023-01-18T21:11:29.555Z,97511.28
2023-01-18T21:13:59.871Z,97520.03
2023-01-18T21:16:28.515Z,97517.50
2023-01-18T21:18:58.688Z,97529.53
2023-01-18T21:21:29.290Z,97525.91
2023-01-18T21:24:01.043Z,97528.94
2023-01-18T21:26:28.971Z,97529.34
2023-01-18T21:28:56.843Z,97530.00
2023-01-18T21:31:25.109Z,97531.88
2023-01-18T21:33:53.010Z,97532.94
2023-01-18T21:36:22.915Z,97539.09
2023-01-18T21:38:51.319Z,97540.25
2023-01-18T21:41:38.665Z,97544.06
2023-01-18T21:44:24.066Z,97544.56
2023-01-18T21:46:53.061Z,97546.38
2023-01-18T21:50:03.929Z,97551.09
2023-01-18T21:52:44.686Z,97556.31
2023-01-18T21:55:13.214Z,97553.97
2023-01-18T21:57:42.418Z,97547.38
2023-01-18T22:00:11.670Z,97553.59
2023-01-18T22:02:39.477Z,97556.97
2023-01-18T22:05:08.601Z,97555.28
2023-01-18T22:07:36.631Z,97568.25
2023-01-18T22:10:06.770Z,97561.66
2023-01-18T22:12:38.856Z,97575.69
2023-01-18T22:15:09.485Z,97576.28
2023-01-18T22:17:37.303Z,97591.88
2023-01-18T22:20:05.819Z,97587.53
2023-01-18T22:22:33.635Z,97589.47
2023-01-18T22:25:02.339Z,97588.44
2023-01-18T22:27:30.366Z,97601.06
2023-01-18T22:29:58.244Z,97603.75
2023-01-18T22:32:27.837Z,97618.41
2023-01-18T22:34:55.643Z,97610.16
2023-01-18T22:37:23.519Z,97620.41
2023-01-18T22:39:51.705Z,97621.16
2023-01-18T22:42:20.016Z,97620.22
2023-01-18T22:44:47.914Z,97621.81
2023-01-18T22:47:15.661Z,97622.97
2023-01-18T22:49:44.811Z,97617.91
2023-01-18T22:52:14.760Z,97621.53
2023-01-18T22:54:42.740Z,97628.56
2023-01-18T22:57:10.662Z,97632.19
2023-01-18T22:59:38.485Z,97630.28
2023-01-18T23:02:06.279Z,97628.78
2023-01-18T23:04:34.347Z,97632.81
2023-01-18T23:07:03.760Z,97639.81
2023-01-18T23:09:31.577Z,97639.53
2023-01-18T23:11:59.416Z,97646.41
2023-01-18T23:14:44.725Z,97648.88
2023-01-18T23:17:32.591Z,97653.75
2023-01-18T23:20:00.651Z,97650.78
2023-01-18T23:22:30.085Z,97654.03
2023-01-18T23:24:58.144Z,97655.44
2023-01-18T23:27:26.168Z,97655.47
2023-01-18T23:29:58.802Z,97658.75
2023-01-18T23:32:30.383Z,97656.66
2023-01-18T23:34:58.664Z,97663.41
2023-01-18T23:37:27.355Z,97659.91
2023-01-18T23:40:14.253Z,97672.28
2023-01-18T23:42:59.802Z,97676.97
2023-01-18T23:45:45.213Z,97672.88
2023-01-18T23:48:32.423Z,97684.34
2023-01-18T23:51:18.233Z,97679.56
2023-01-18T23:54:03.920Z,97677.84
2023-01-18T23:56:33.161Z,97676.66
2023-01-18T23:59:01.060Z,97680.88
